createdAt,value
2023-01-17T00:01:34.073Z,6.82
2023-01-17T00:04:19.618Z,10.82
2023-01-17T00:07:05.085Z,5.80
2023-01-17T00:09:50.567Z,7.45
2023-01-17T00:12:17.488Z,5.38
2023-01-17T00:14:44.350Z,5.25
2023-01-17T00:17:11.004Z,9.18
2023-01-17T00:19:56.489Z,12.23
2023-01-17T00:22:47.582Z,4.22
2023-01-17T00:25:35.066Z,3.28
2023-01-17T00:28:03.452Z,5.28
2023-01-17T00:30:30.256Z,5.53
2023-01-17T00:32:56.934Z,7.40
2023-01-17T00:35:25.334Z,3.63
2023-01-17T00:38:07.363Z,3.42
2023-01-17T00:40:35.697Z,4.95
2023-01-17T00:43:23.587Z,4.85
2023-01-17T00:46:09.636Z,4.20
2023-01-17T00:48:56.000Z,5.82
2023-01-17T00:51:43.291Z,2.22
2023-01-17T00:54:29.841Z,1.90
2023-01-17T00:57:15.823Z,1.50
2023-01-17T01:00:01.424Z,0.47
2023-01-17T01:02:47.992Z,3.22
2023-01-17T01:05:33.965Z,1.90
2023-01-17T01:08:19.535Z,1.23
2023-01-17T01:11:06.080Z,4.05
2023-01-17T01:13:52.361Z,2.83
2023-01-17T01:16:38.123Z,1.75
2023-01-17T01:19:24.510Z,1.23
2023-01-17T01:22:09.827Z,1.60
2023-01-17T01:24:55.416Z,5.00
2023-01-17T01:27:40.908Z,0.50
2023-01-17T01:30:27.073Z,2.60
2023-01-17T01:33:13.428Z,0.77
2023-01-17T01:35:41.902Z,1.33
2023-01-17T01:38:08.897Z,0.60
2023-01-17T01:40:41.181Z,2.40
2023-01-17T01:43:12.494Z,1.02
2023-01-17T01:45:39.858Z,1.27
2023-01-17T01:48:22.594Z,1.92
2023-01-17T01:50:50.566Z,1.48
2023-01-17T01:53:19.544Z,0.45
2023-01-17T01:55:49.496Z,3.03
2023-01-17T01:58:24.192Z,1.15
2023-01-17T02:00:51.806Z,0.60
2023-01-17T02:03:25.724Z,3.00
2023-01-17T02:05:52.928Z,1.55
2023-01-17T02:08:23.424Z,0.45
2023-01-17T02:13:20.629Z,2.47
2023-01-17T02:16:16.612Z,2.70
2023-01-17T02:19:21.403Z,2.22
2023-01-17T02:22:21.336Z,2.65
2023-01-17T02:25:30.182Z,4.57
2023-01-17T02:28:06.071Z,2.45
2023-01-17T02:30:37.307Z,2.42
2023-01-17T02:33:07.740Z,3.33
2023-01-17T02:35:42.208Z,5.68
2023-01-17T02:38:08.989Z,4.05
2023-01-17T02:40:45.176Z,1.73
2023-01-17T02:43:16.752Z,2.38
2023-01-17T02:45:43.621Z,4.50
2023-01-17T02:48:20.971Z,2.70
2023-01-17T02:50:53.635Z,6.45
2023-01-17T02:53:25.437Z,3.40
2023-01-17T02:56:14.385Z,3.75
2023-01-17T02:59:01.333Z,6.07
2023-01-17T03:01:59.328Z,3.25
2023-01-17T03:04:40.414Z,7.35
2023-01-17T03:07:16.431Z,4.85
2023-01-17T03:09:49.415Z,1.65
2023-01-17T03:12:16.179Z,3.45
2023-01-17T03:14:42.865Z,4.03
2023-01-17T03:17:09.532Z,3.97
2023-01-17T03:19:36.249Z,2.15
2023-01-17T03:22:02.934Z,3.45
2023-01-17T03:24:29.723Z,1.70
2023-01-17T03:26:56.522Z,4.75
2023-01-17T03:29:23.240Z,2.97
2023-01-17T03:31:49.891Z,6.28
2023-01-17T03:34:16.810Z,6.32
2023-01-17T03:36:43.569Z,3.65
2023-01-17T03:39:10.196Z,4.03
2023-01-17T03:41:37.102Z,6.90
2023-01-17T03:44:04.091Z,4.10
2023-01-17T03:46:31.009Z,1.98
2023-01-17T03:48:57.696Z,3.70
2023-01-17T03:51:24.390Z,4.72
2023-01-17T03:53:51.987Z,5.82
2023-01-17T03:56:18.949Z,2.45
2023-01-17T03:58:45.725Z,5.45
2023-01-17T04:01:12.723Z,4.07
2023-01-17T04:03:40.016Z,2.28
2023-01-17T04:06:06.928Z,2.10
2023-01-17T04:08:33.613Z,3.08
2023-01-17T04:11:00.299Z,5.88
2023-01-17T04:13:28.994Z,5.97
2023-01-17T04:15:56.392Z,2.53
2023-01-17T04:18:24.478Z,5.70
2023-01-17T04:20:51.582Z,1.70
2023-01-17T04:23:18.543Z,4.45
2023-01-17T04:25:45.427Z,5.50
2023-01-17T04:28:12.567Z,4.18
2023-01-17T04:30:39.402Z,5.78
2023-01-17T04:33:06.241Z,8.80
2023-01-17T04:35:36.085Z,8.32
2023-01-17T04:38:02.812Z,4.47
2023-01-17T04:40:29.676Z,3.58
2023-01-17T04:42:59.527Z,2.40
2023-01-17T04:45:26.494Z,1.85
2023-01-17T04:47:54.284Z,4.10
2023-01-17T04:50:22.074Z,10.40
2023-01-17T04:52:48.725Z,9.07
2023-01-17T04:55:15.658Z,2.38
2023-01-17T04:57:42.404Z,4.43
2023-01-17T05:00:09.660Z,3.97
2023-01-17T05:02:36.478Z,5.70
2023-01-17T05:05:03.179Z,4.05
2023-01-17T05:07:29.910Z,4.50
2023-01-17T05:09:56.684Z,6.75
2023-01-17T05:12:23.360Z,6.60
2023-01-17T05:14:50.126Z,5.38
2023-01-17T05:17:16.775Z,3.67
2023-01-17T05:19:43.638Z,3.97
2023-01-17T05:22:17.318Z,4.55
2023-01-17T05:24:45.597Z,4.60
2023-01-17T05:27:13.518Z,5.10
2023-01-17T05:29:40.371Z,1.58
2023-01-17T05:32:07.386Z,6.32
2023-01-17T05:34:35.019Z,2.78
2023-01-17T05:37:01.859Z,3.05
2023-01-17T05:39:30.915Z,4.10
2023-01-17T05:41:58.171Z,6.32
2023-01-17T05:44:38.657Z,4.25
2023-01-17T05:47:13.399Z,5.18
2023-01-17T05:49:40.110Z,4.97
2023-01-17T05:52:06.828Z,8.88
2023-01-17T05:54:33.546Z,4.60
2023-01-17T05:57:00.224Z,6.30
2023-01-17T05:59:36.585Z,4.50
2023-01-17T06:02:04.189Z,0.32
2023-01-17T06:04:31.084Z,3.40
2023-01-17T06:06:58.894Z,6.60
2023-01-17T06:09:25.548Z,7.18
2023-01-17T06:11:58.081Z,2.40
2023-01-17T06:14:26.771Z,6.75
2023-01-17T06:16:53.507Z,2.13
2023-01-17T06:19:20.264Z,5.07
2023-01-17T06:21:46.921Z,7.70
2023-01-17T06:24:13.711Z,5.43
2023-01-17T06:26:43.903Z,4.97
2023-01-17T06:29:11.972Z,2.33
2023-01-17T06:31:38.819Z,6.72
2023-01-17T06:34:05.627Z,5.45
2023-01-17T06:36:35.395Z,4.68
2023-01-17T06:39:02.172Z,8.43
2023-01-17T06:41:29.030Z,4.93
2023-01-17T06:43:55.888Z,4.88
2023-01-17T06:46:23.262Z,7.68
2023-01-17T06:48:50.524Z,3.13
2023-01-17T06:51:17.693Z,7.47
2023-01-17T06:53:44.445Z,10.50
2023-01-17T06:56:11.173Z,6.10
2023-01-17T06:58:37.825Z,5.45
2023-01-17T07:01:09.337Z,3.58
2023-01-17T07:03:36.529Z,6.65
2023-01-17T07:06:04.711Z,6.22
2023-01-17T07:08:32.029Z,7.53
2023-01-17T07:11:05.146Z,6.90
2023-01-17T07:13:36.424Z,8.52
2023-01-17T07:16:04.752Z,4.90
2023-01-17T07:18:32.549Z,4.72
2023-01-17T07:21:15.106Z,5.22
2023-01-17T07:23:48.105Z,4.80
2023-01-17T07:26:16.837Z,9.75
2023-01-17T07:28:43.893Z,8.60
2023-01-17T07:31:10.603Z,6.25
2023-01-17T07:33:37.395Z,9.98
2023-01-17T07:36:06.550Z,38.00
2023-01-17T07:38:33.958Z,9.63
2023-01-17T07:41:01.008Z,5.72
2023-01-17T07:43:27.788Z,13.88
2023-01-17T07:45:54.820Z,13.18
2023-01-17T07:48:23.973Z,8.07
2023-01-17T07:50:57.731Z,9.38
2023-01-17T07:53:26.225Z,10.07
2023-01-17T07:55:52.992Z,11.63
2023-01-17T07:58:19.976Z,8.02
2023-01-17T08:00:46.940Z,13.02
2023-01-17T08:03:16.189Z,15.48
2023-01-17T08:05:52.451Z,5.45
2023-01-17T08:08:19.123Z,10.60
2023-01-17T08:10:45.836Z,5.53
2023-01-17T08:13:12.497Z,4.10
2023-01-17T08:15:39.190Z,9.82
2023-01-17T08:18:05.969Z,8.18
2023-01-17T08:20:32.679Z,3.92
2023-01-17T08:22:59.453Z,5.28
2023-01-17T08:25:26.974Z,6.60
2023-01-17T08:27:57.754Z,4.18
2023-01-17T08:30:25.430Z,5.65
2023-01-17T08:32:52.181Z,4.68
2023-01-17T08:35:20.109Z,2.92
2023-01-17T08:37:48.588Z,8.68
2023-01-17T08:40:18.168Z,3.65
2023-01-17T08:42:44.858Z,4.73
2023-01-17T08:45:12.554Z,4.95
2023-01-17T08:47:39.286Z,5.72
2023-01-17T08:50:06.988Z,4.60
2023-01-17T08:52:34.482Z,3.58
2023-01-17T08:55:01.260Z,2.97
2023-01-17T08:57:28.189Z,13.13
2023-01-17T08:59:56.967Z,4.78
2023-01-17T09:02:24.789Z,3.58
2023-01-17T09:04:51.979Z,4.25
2023-01-17T09:07:20.638Z,6.22
2023-01-17T09:09:47.643Z,5.88
2023-01-17T09:12:14.483Z,7.95
2023-01-17T09:14:41.235Z,4.65
2023-01-17T09:17:07.965Z,5.68
2023-01-17T09:19:35.493Z,4.50
2023-01-17T09:22:04.268Z,7.47
2023-01-17T09:24:31.224Z,6.03
2023-01-17T09:26:58.012Z,9.05
2023-01-17T09:29:24.688Z,5.03
2023-01-17T09:31:51.490Z,4.65
2023-01-17T09:34:18.669Z,5.55
2023-01-17T09:36:45.597Z,7.93
2023-01-17T09:39:14.963Z,4.72
2023-01-17T09:42:10.823Z,2.90
2023-01-17T09:44:40.223Z,7.97
2023-01-17T09:47:36.051Z,8.68
2023-01-17T09:50:11.954Z,4.22
2023-01-17T09:52:39.799Z,5.90
2023-01-17T09:55:08.184Z,7.05
2023-01-17T09:57:52.531Z,2.53
2023-01-17T10:00:33.220Z,7.85
2023-01-17T10:03:21.351Z,5.82
2023-01-17T10:05:59.757Z,5.78
2023-01-17T10:08:29.246Z,5.65
2023-01-17T10:11:17.337Z,4.72
2023-01-17T10:14:03.112Z,5.25
2023-01-17T10:16:45.100Z,5.70
2023-01-17T10:19:29.706Z,5.97
2023-01-17T10:22:15.257Z,6.47
2023-01-17T10:25:10.470Z,6.38
2023-01-17T10:28:04.720Z,8.52
2023-01-17T10:30:43.580Z,4.82
2023-01-17T10:33:18.036Z,6.78
2023-01-17T10:35:59.677Z,9.48
2023-01-17T10:38:32.641Z,9.27
2023-01-17T10:41:13.654Z,3.95
2023-01-17T10:43:59.421Z,11.20
2023-01-17T10:46:32.601Z,9.25
2023-01-17T10:49:01.252Z,5.20
2023-01-17T10:51:51.478Z,8.00
2023-01-17T10:54:35.251Z,7.90
2023-01-17T10:57:02.085Z,6.60
2023-01-17T10:59:31.516Z,5.78
2023-01-17T11:01:58.815Z,5.15
2023-01-17T11:04:36.604Z,6.65
2023-01-17T11:07:12.763Z,5.13
2023-01-17T11:09:47.160Z,6.68
2023-01-17T11:12:33.909Z,5.32
2023-01-17T11:15:25.835Z,6.32
2023-01-17T11:18:02.599Z,10.15
2023-01-17T11:20:37.877Z,5.45
2023-01-17T11:23:23.939Z,6.20
2023-01-17T11:26:02.644Z,8.75
2023-01-17T11:28:31.912Z,10.57
2023-01-17T11:31:23.928Z,6.13
2023-01-17T11:34:07.294Z,7.93
2023-01-17T11:36:34.478Z,11.27
2023-01-17T11:39:05.425Z,6.20
2023-01-17T11:41:40.802Z,6.47
2023-01-17T11:44:27.940Z,9.55
2023-01-17T11:47:12.776Z,8.93
2023-01-17T11:49:49.920Z,6.50
2023-01-17T11:52:26.159Z,7.88
2023-01-17T11:54:55.919Z,7.28
2023-01-17T11:57:29.222Z,6.78
2023-01-17T12:00:11.816Z,6.18
2023-01-17T12:03:08.613Z,7.00
2023-01-17T12:05:43.735Z,6.90
2023-01-17T12:08:30.346Z,5.25
2023-01-17T12:11:09.510Z,10.93
2023-01-17T12:14:00.778Z,8.20
2023-01-17T12:16:42.571Z,10.15
2023-01-17T12:19:24.256Z,9.80
2023-01-17T12:22:09.180Z,6.45
2023-01-17T12:24:41.951Z,7.75
2023-01-17T12:27:24.574Z,11.07
2023-01-17T12:30:02.013Z,7.03
2023-01-17T12:32:47.573Z,6.70
2023-01-17T12:35:24.732Z,6.85
2023-01-17T12:38:05.315Z,8.98
2023-01-17T12:40:51.311Z,3.17
2023-01-17T12:43:32.980Z,3.85
2023-01-17T12:46:05.430Z,4.57
2023-01-17T12:48:37.868Z,5.07
2023-01-17T12:51:15.615Z,6.93
2023-01-17T12:54:13.030Z,8.95
2023-01-17T12:56:52.413Z,2.13
2023-01-17T12:59:32.193Z,1.50
2023-01-17T13:02:02.357Z,6.20
2023-01-17T13:04:58.722Z,3.08
2023-01-17T13:07:40.626Z,4.13
2023-01-17T13:10:22.656Z,7.82
2023-01-17T13:12:50.893Z,11.38
2023-01-17T13:15:22.510Z,3.72
2023-01-17T13:17:56.871Z,2.97
2023-01-17T13:21:04.916Z,3.55
2023-01-17T13:23:59.065Z,3.13
2023-01-17T13:26:49.946Z,1.85
2023-01-17T13:30:01.940Z,6.05
2023-01-17T13:33:01.783Z,1.88
2023-01-17T13:35:43.599Z,4.50
2023-01-17T13:38:56.394Z,3.22
2023-01-17T13:41:26.244Z,2.92
2023-01-17T13:44:11.898Z,3.08
2023-01-17T13:47:06.636Z,1.30
2023-01-17T13:49:40.739Z,3.78
2023-01-17T13:52:31.045Z,2.25
2023-01-17T13:55:02.998Z,1.73
2023-01-17T13:57:32.999Z,2.30
2023-01-17T14:00:38.833Z,9.50
2023-01-17T14:03:11.401Z,2.75
2023-01-17T14:05:38.093Z,2.92
2023-01-17T14:08:17.313Z,5.18
2023-01-17T14:11:12.126Z,3.83
2023-01-17T14:13:39.856Z,4.03
2023-01-17T14:16:21.556Z,1.80
2023-01-17T14:18:49.281Z,3.17
2023-01-17T14:21:33.633Z,6.10
2023-01-17T14:24:18.061Z,2.65
2023-01-17T14:26:47.713Z,2.10
2023-01-17T14:29:52.227Z,2.30
2023-01-17T14:32:27.473Z,2.15
2023-01-17T14:34:54.546Z,2.22
2023-01-17T14:37:33.382Z,5.15
2023-01-17T14:40:01.020Z,2.92
2023-01-17T14:42:30.587Z,4.43
2023-01-17T14:45:04.340Z,4.18
2023-01-17T14:47:35.078Z,3.92
2023-01-17T14:50:29.248Z,3.08
2023-01-17T14:53:28.179Z,2.35
2023-01-17T14:55:56.830Z,3.67
2023-01-17T14:58:26.838Z,2.95
2023-01-17T15:01:09.296Z,4.85
2023-01-17T15:03:53.538Z,3.22
2023-01-17T15:06:27.748Z,3.25
2023-01-17T15:08:54.632Z,5.65
2023-01-17T15:11:35.415Z,4.60
2023-01-17T15:14:05.932Z,3.47
2023-01-17T15:19:02.852Z,3.63
2023-01-17T15:21:35.453Z,1.80
2023-01-17T15:24:08.325Z,5.43
2023-01-17T15:26:38.846Z,4.72
2023-01-17T15:31:51.043Z,3.28
2023-01-17T15:34:44.452Z,5.85
2023-01-17T15:37:41.444Z,6.32
2023-01-17T15:40:31.215Z,2.78
2023-01-17T15:43:01.361Z,2.85
2023-01-17T15:45:31.983Z,3.25
2023-01-17T15:48:18.772Z,2.80
2023-01-17T15:50:45.579Z,2.13
2023-01-17T15:53:36.687Z,2.17
2023-01-17T15:56:29.773Z,4.82
2023-01-17T15:59:20.173Z,4.63
2023-01-17T16:01:55.392Z,2.33
2023-01-17T16:04:37.254Z,1.40
2023-01-17T16:07:21.825Z,2.88
2023-01-17T16:09:49.601Z,2.78
2023-01-17T16:12:16.356Z,1.88
2023-01-17T16:15:02.434Z,3.65
2023-01-17T16:17:30.851Z,2.83
2023-01-17T16:19:57.705Z,4.78
2023-01-17T16:22:24.752Z,1.50
2023-01-17T16:24:52.526Z,2.72
2023-01-17T16:27:20.029Z,10.15
2023-01-17T16:29:46.744Z,9.40
2023-01-17T16:32:15.429Z,8.50
2023-01-17T16:34:42.444Z,7.88
2023-01-17T16:37:11.084Z,8.38
2023-01-17T16:39:39.856Z,7.10
2023-01-17T16:42:27.145Z,5.85
2023-01-17T16:44:55.047Z,7.03
2023-01-17T16:47:22.615Z,5.18
2023-01-17T16:49:49.363Z,5.78
2023-01-17T16:52:16.114Z,11.98
2023-01-17T16:54:42.813Z,50.28
2023-01-17T16:57:09.672Z,16.50
2023-01-17T16:59:49.983Z,26.67
2023-01-17T17:02:19.399Z,6.35
2023-01-17T17:04:46.057Z,6.13
2023-01-17T17:07:12.861Z,5.53
2023-01-17T17:09:39.539Z,3.25
2023-01-17T17:12:06.722Z,6.47
2023-01-17T17:14:33.485Z,6.25
2023-01-17T17:17:02.975Z,4.55
2023-01-17T17:19:29.925Z,3.60
2023-01-17T17:22:06.506Z,6.57
2023-01-17T17:24:33.330Z,4.82
2023-01-17T17:27:00.100Z,3.65
2023-01-17T17:29:26.860Z,5.22
2023-01-17T17:31:53.994Z,3.83
2023-01-17T17:34:23.228Z,2.42
2023-01-17T17:36:51.957Z,3.33
2023-01-17T17:39:19.991Z,3.05
2023-01-17T17:41:46.805Z,3.03
2023-01-17T17:44:13.663Z,4.50
2023-01-17T17:46:42.081Z,5.85
2023-01-17T17:49:09.475Z,4.78
2023-01-17T17:51:39.297Z,3.00
2023-01-17T17:54:12.166Z,5.25
2023-01-17T17:56:39.441Z,6.57
2023-01-17T17:59:08.913Z,3.65
2023-01-17T18:01:38.349Z,3.60
2023-01-17T18:04:07.396Z,4.35
2023-01-17T18:06:35.065Z,6.45
2023-01-17T18:09:02.817Z,13.20
2023-01-17T18:11:30.335Z,7.55
2023-01-17T18:13:59.925Z,6.40
2023-01-17T18:16:30.157Z,7.30
2023-01-17T18:18:59.217Z,7.88
2023-01-17T18:21:28.716Z,12.25
2023-01-17T18:24:01.089Z,13.13
2023-01-17T18:26:32.334Z,10.45
2023-01-17T18:29:01.506Z,12.45
2023-01-17T18:31:30.498Z,9.98
2023-01-17T18:34:00.154Z,10.50
2023-01-17T18:36:28.970Z,8.67
2023-01-17T18:38:55.837Z,8.23
2023-01-17T18:41:26.579Z,7.22
2023-01-17T18:43:55.988Z,7.50
2023-01-17T18:46:24.118Z,7.43
2023-01-17T18:48:50.833Z,12.38
2023-01-17T18:51:19.401Z,11.82
2023-01-17T18:53:46.770Z,19.67
2023-01-17T18:56:19.944Z,26.50
2023-01-17T18:58:48.479Z,18.48
2023-01-17T19:01:18.294Z,16.10
2023-01-17T19:03:47.373Z,17.40
2023-01-17T19:06:19.857Z,14.98
2023-01-17T19:08:46.703Z,15.68
2023-01-17T19:11:13.396Z,14.30
2023-01-17T19:13:41.867Z,8.23
2023-01-17T19:16:14.247Z,14.98
2023-01-17T19:18:41.458Z,10.18
2023-01-17T19:21:11.898Z,9.10
2023-01-17T19:23:40.117Z,9.52
2023-01-17T19:26:08.566Z,6.88
2023-01-17T19:28:46.329Z,6.53
2023-01-17T19:31:15.535Z,9.63
2023-01-17T19:33:44.215Z,8.13
2023-01-17T19:36:14.341Z,8.07
2023-01-17T19:38:41.905Z,5.93
2023-01-17T19:41:15.858Z,5.82
2023-01-17T19:43:43.586Z,6.60
2023-01-17T19:46:11.678Z,8.18
2023-01-17T19:48:39.798Z,9.50
2023-01-17T19:51:11.897Z,9.70
2023-01-17T19:53:39.983Z,7.00
2023-01-17T19:56:16.246Z,7.28
2023-01-17T19:58:47.710Z,9.10
2023-01-17T20:01:28.593Z,10.02
2023-01-17T20:03:57.935Z,7.60
2023-01-17T20:06:29.187Z,10.30
2023-01-17T20:08:56.569Z,6.38
2023-01-17T20:11:26.209Z,6.55
2023-01-17T20:13:55.830Z,7.33
2023-01-17T20:16:24.277Z,8.53
2023-01-17T20:18:51.671Z,10.15
2023-01-17T20:21:23.891Z,9.50
2023-01-17T20:23:52.321Z,9.23
2023-01-17T20:26:25.324Z,7.85
2023-01-17T20:28:52.283Z,9.27
2023-01-17T20:31:21.904Z,7.13
2023-01-17T20:33:53.675Z,9.73
2023-01-17T20:36:25.343Z,7.80
2023-01-17T20:38:53.236Z,10.75
2023-01-17T20:41:31.561Z,10.00
2023-01-17T20:43:59.940Z,7.57
2023-01-17T20:46:29.240Z,9.38
2023-01-17T20:48:57.929Z,7.93
2023-01-17T20:51:26.798Z,9.18
2023-01-17T20:53:59.165Z,11.18
2023-01-17T20:56:26.577Z,10.43
2023-01-17T20:58:54.285Z,8.50
2023-01-17T21:01:22.596Z,11.50
2023-01-17T21:03:53.055Z,6.95
2023-01-17T21:06:21.590Z,10.45
2023-01-17T21:08:49.156Z,11.13
2023-01-17T21:11:22.174Z,8.05
2023-01-17T21:13:49.774Z,10.93
2023-01-17T21:16:17.735Z,9.10
2023-01-17T21:18:47.650Z,9.60
2023-01-17T21:21:21.890Z,30.50
2023-01-17T21:23:50.701Z,34.63
2023-01-17T21:26:18.933Z,61.08
2023-01-17T21:28:47.618Z,42.95
2023-01-17T21:31:24.797Z,46.17
2023-01-17T21:33:56.476Z,20.45
2023-01-17T21:36:26.409Z,15.73
2023-01-17T21:38:56.942Z,16.67
2023-01-17T21:43:58.500Z,24.27
2023-01-17T21:46:26.897Z,30.83
2023-01-17T21:48:53.944Z,28.75
2023-01-17T21:51:21.777Z,28.98
2023-01-17T21:53:48.554Z,22.92
2023-01-17T21:56:34.085Z,18.00
2023-01-17T21:59:01.096Z,16.50
2023-01-17T22:01:32.419Z,11.43
2023-01-17T22:04:02.746Z,15.02
2023-01-17T22:06:32.446Z,12.43
2023-01-17T22:08:59.476Z,13.63
2023-01-17T22:11:27.559Z,14.55
2023-01-17T22:13:54.463Z,11.07
2023-01-17T22:16:25.987Z,11.93
2023-01-17T22:18:52.954Z,11.90
2023-01-17T22:21:22.086Z,11.25
2023-01-17T22:23:53.257Z,10.00
2023-01-17T22:26:22.226Z,13.55
2023-01-17T22:28:49.034Z,14.75
2023-01-17T22:31:19.218Z,13.68
2023-01-17T22:33:47.094Z,12.23
2023-01-17T22:36:14.792Z,10.60
2023-01-17T22:38:44.934Z,13.23
2023-01-17T22:41:16.069Z,15.50
2023-01-17T22:43:45.041Z,11.13
2023-01-17T22:46:14.914Z,14.13
2023-01-17T22:48:42.155Z,11.35
2023-01-17T22:51:12.255Z,12.85
2023-01-17T22:53:46.442Z,12.30
2023-01-17T22:56:15.786Z,14.55
2023-01-17T22:58:44.955Z,13.18
2023-01-17T23:01:14.843Z,13.82
2023-01-17T23:03:41.979Z,12.32
2023-01-17T23:06:17.182Z,12.43
2023-01-17T23:08:46.042Z,17.60
2023-01-17T23:11:41.175Z,11.00
2023-01-17T23:14:12.621Z,14.05
2023-01-17T23:17:00.979Z,12.52
2023-01-17T23:19:30.937Z,11.88
2023-01-17T23:22:19.429Z,13.50
2023-01-17T23:24:46.168Z,12.20
2023-01-17T23:27:38.423Z,10.20
2023-01-17T23:30:10.824Z,12.63
2023-01-17T23:32:43.876Z,12.50
2023-01-17T23:35:10.675Z,11.15
2023-01-17T23:37:55.985Z,13.30
2023-01-17T23:40:22.801Z,13.05
2023-01-17T23:43:08.381Z,11.07
2023-01-17T23:45:36.555Z,12.75
2023-01-17T23:48:05.558Z,11.23
2023-01-17T23:50:33.227Z,12.30
2023-01-17T23:53:00.320Z,14.40
2023-01-17T23:55:29.522Z,12.77
2023-01-17T23:57:56.247Z,11.05
